Madera, PA (16661)

07:01 AM EDT die 30o July, anno 2016 (GMT -0400)
The Garden | | Change Station

Elev 1578 ft 40.79 °N, 78.37 °W | Updated 7 seconds ago

Partly Cloudy
Partialiter Nubila
60.8 °F
Feels Like 60.8 °F
N
0.0
Ventus Variabilis Ventus from Inter Austrum et Zephyrum
Gusts 0.0 mph

Hodie
High -- | Low -- °F
--% Chance of Precip.
Yesterday
High -- | Low -- °F
Precip. -- in
Pressio 29.99 in
Visibilitas 10.0 milia passuum
Clouds Few 200 ft
Frigus in quo Ros apparet 60 °F
Umor 97%
Rainfall 0.00 in
Snow Depth Not available.
6:08 AM 8:31 PM
Waning Crescent, 14% visible
METAR KFIG 301054Z AUTO 01003KT 10SM FEW002 17/16 A3001 RMK AO2 SLP154 T01670156
Pressio 29.99 in
Visibilitas 10.0 milia passuum
Clouds Few 200 ft
Frigus in quo Ros apparet 60 °F
Umor 97%
Rainfall 0.00 in
Snow Depth Not available.
6:08 AM 8:31 PM
Waning Crescent, 14% visible
METAR KFIG 301054Z AUTO 01003KT 10SM FEW002 17/16 A3001 RMK AO2 SLP154 T01670156

10-Day Weather Forecast

Almanac

Astronomy

Jul. 30, 2016 Rise Set
Actual Time
Civil Twilight
Nautical Twilight
Astronomical Twilight
Moon
Length Of Visible Light
Length of Day
Tomorrow will be .
, % of the Moon is Illuminated

Today's Extremes

State Highs State Lows

Community

WunderPhotos

Upload Photos

1,928,530 photos uploaded!

WunderBlog® & News

Nearby

Air Quality

  Air Quality AQ Index Pollutant
Not available.

Snow Depth

Station Depth Elevation

Earthquake Activity

City Distance Mag. Time & Date
Minimum magnitude displayed is 2.5.

Coastal Water Temperatures

Locus Calor

Stations

Nearby Weather Stations

Station Location Temp Frigus Venti Frigus in quo Ros apparet Umor Ventus Precip. Elev Renovata Type
                   

Watches & Warnings

There are currently no watches in effect.